Terminal Aerodrome Forecast
Issued by NWS

Home | Current Version | Previous Version | Text Only | Print | Product List | Glossary On
Versions: 1 2 3 4 5 6 7 8 9 10 11 12
000
FTUS45 KGGW 262300
TAFSDY
TAF
KSDY 262320Z 2700/2724 11007KT P6SM VCSH BKN060 BKN120
     FM271100 28010KT P6SM BKN080
     FM271800 30012KT P6SM BKN250
      AMD LTD TO CLD VIS AND WIND=

USA.gov is the U.S. government's official web portal to all federal, state and local government web resources and services.